Аэропорт: Казань. Казань

ICAO: UWKD

METAR:
2021-01-24 19:00:00
UWKD 241900Z 17005MPS 9000 OVC016 01/00 Q1022 R11/350035 NOSIG RMK QFE757/1009
METAR:
2021-01-24 17:00:00
TAF UWKD 241700Z 2418/2518 18004MPS 2100 BR OVC003 TX01/2418Z TNM02/2518Z TEMPO 2418/2503 0300 -DZ FG OVC002 FM250300 18005G12MPS 6000 OVC016 TEMPO 2503/2506 BKN004